createdAt,value
2023-05-14T00:01:14.894Z,97365.63
2023-05-14T00:03:41.530Z,97368.47
2023-05-14T00:06:08.945Z,97356.84
2023-05-14T00:08:35.692Z,97364.75
2023-05-14T00:11:02.190Z,97351.91
2023-05-14T00:13:28.955Z,97349.53
2023-05-14T00:15:55.494Z,97344.81
2023-05-14T00:18:21.912Z,97350.91
2023-05-14T00:20:48.379Z,97342.53
2023-05-14T00:23:14.714Z,97344.31
2023-05-14T00:25:41.124Z,97345.22
2023-05-14T00:28:07.507Z,97340.97
2023-05-14T00:30:34.861Z,97341.88
2023-05-14T00:33:01.377Z,97334.75
2023-05-14T00:35:27.920Z,97334.47
2023-05-14T00:37:54.280Z,97336.97
2023-05-14T00:40:25.682Z,97338.22
2023-05-14T00:42:52.378Z,97323.06
2023-05-14T00:45:18.859Z,97340.03
2023-05-14T00:47:45.502Z,97316.88
2023-05-14T00:50:12.254Z,97320.47
2023-05-14T00:52:39.100Z,97325.56
2023-05-14T00:55:06.751Z,97325.25
2023-05-14T00:57:34.649Z,97315.19
2023-05-14T01:00:01.162Z,97324.91
2023-05-14T01:02:27.637Z,97313.47
2023-05-14T01:04:54.606Z,97318.56
2023-05-14T01:07:37.513Z,97324.06
2023-05-14T01:10:45.685Z,97318.88
2023-05-14T01:13:33.684Z,97317.97
2023-05-14T01:16:01.596Z,97309.13
2023-05-14T01:18:28.369Z,97320.16
2023-05-14T01:20:54.903Z,97323.53
2023-05-14T01:23:21.256Z,97308.25
2023-05-14T01:25:47.681Z,97309.03
2023-05-14T01:28:19.188Z,97306.53
2023-05-14T01:31:27.698Z,97298.63
2023-05-14T01:33:58.172Z,97299.50
2023-05-14T01:36:25.205Z,97297.59
2023-05-14T01:38:51.825Z,97292.19
2023-05-14T01:41:19.353Z,97295.84
2023-05-14T01:43:45.762Z,97300.06
2023-05-14T01:46:12.187Z,97291.19
2023-05-14T01:48:38.551Z,97307.19
2023-05-14T01:51:05.002Z,97300.00
2023-05-14T01:53:31.384Z,97296.00
2023-05-14T01:55:57.774Z,97297.16
2023-05-14T01:58:24.168Z,97287.81
2023-05-14T02:00:50.532Z,97294.63
2023-05-14T02:03:16.913Z,97301.88
2023-05-14T02:05:43.278Z,97303.22
2023-05-14T02:08:09.631Z,97296.88
2023-05-14T02:10:36.015Z,97300.16
2023-05-14T02:13:03.852Z,97297.50
2023-05-14T02:15:30.224Z,97299.59
2023-05-14T02:17:56.629Z,97296.53
2023-05-14T02:20:23.138Z,97296.53
2023-05-14T02:22:49.723Z,97277.78
2023-05-14T02:25:16.075Z,97291.56
2023-05-14T02:27:42.481Z,97277.66
2023-05-14T02:30:09.990Z,97296.94
2023-05-14T02:32:36.951Z,97285.56
2023-05-14T02:35:03.520Z,97287.06
2023-05-14T02:37:29.889Z,97288.00
2023-05-14T02:39:56.237Z,97291.44
2023-05-14T02:42:22.586Z,97281.66
2023-05-14T02:44:48.994Z,97277.34
2023-05-14T02:47:15.355Z,97286.38
2023-05-14T02:49:41.705Z,97281.63
2023-05-14T02:52:08.073Z,97280.44
2023-05-14T02:54:34.650Z,97279.59
2023-05-14T02:57:01.013Z,97271.13
2023-05-14T02:59:27.574Z,97261.50
2023-05-14T03:01:54.405Z,97279.31
2023-05-14T03:04:21.183Z,97281.72
2023-05-14T03:06:47.573Z,97267.56
2023-05-14T03:09:14.335Z,97271.22
2023-05-14T03:11:40.763Z,97273.31
2023-05-14T03:14:07.106Z,97264.66
2023-05-14T03:16:33.506Z,97259.25
2023-05-14T03:18:59.979Z,97260.03
2023-05-14T03:21:26.380Z,97259.63
2023-05-14T03:23:53.670Z,97272.47
2023-05-14T03:26:21.525Z,97259.25
2023-05-14T03:28:47.954Z,97254.44
2023-05-14T03:31:14.401Z,97254.84
2023-05-14T03:33:41.191Z,97263.69
2023-05-14T03:36:07.678Z,97254.44
2023-05-14T03:38:34.051Z,97254.22
2023-05-14T03:41:00.510Z,97265.81
2023-05-14T03:43:26.852Z,97268.47
2023-05-14T03:45:53.247Z,97255.13
2023-05-14T03:48:20.400Z,97270.28
2023-05-14T03:50:46.912Z,97265.75
2023-05-14T03:53:13.302Z,97271.16
2023-05-14T03:55:39.694Z,97261.34
2023-05-14T03:58:10.897Z,97265.56
2023-05-14T04:00:37.302Z,97268.56
2023-05-14T04:03:03.948Z,97261.66
2023-05-14T04:05:30.403Z,97258.44
2023-05-14T04:07:58.148Z,97258.91
2023-05-14T04:10:24.670Z,97242.28
2023-05-14T04:12:51.197Z,97271.56
2023-05-14T04:15:17.567Z,97263.03
2023-05-14T04:17:43.971Z,97266.53
2023-05-14T04:20:10.570Z,97264.94
2023-05-14T04:22:36.939Z,97261.69
2023-05-14T04:25:03.385Z,97268.81
2023-05-14T04:27:29.896Z,97254.56
2023-05-14T04:29:56.382Z,97267.25
2023-05-14T04:32:22.814Z,97255.25
2023-05-14T04:34:49.290Z,97268.38
2023-05-14T04:37:15.846Z,97267.03
2023-05-14T04:39:42.499Z,97252.97
2023-05-14T04:42:09.609Z,97263.53
2023-05-14T04:44:37.544Z,97262.88
2023-05-14T04:47:04.476Z,97273.72
2023-05-14T04:49:31.074Z,97263.44
2023-05-14T04:51:57.447Z,97272.16
2023-05-14T04:54:24.007Z,97268.59
2023-05-14T04:56:51.027Z,97279.31
2023-05-14T04:59:17.439Z,97271.56
2023-05-14T05:01:43.916Z,97266.84
2023-05-14T05:04:10.440Z,97274.06
2023-05-14T05:06:36.923Z,97267.34
2023-05-14T05:09:03.582Z,97279.56
2023-05-14T05:11:29.940Z,97276.09
2023-05-14T05:13:56.325Z,97273.53
2023-05-14T05:16:22.803Z,97268.81
2023-05-14T05:18:49.311Z,97265.00
2023-05-14T05:21:15.690Z,97266.50
2023-05-14T05:23:42.048Z,97271.56
2023-05-14T05:26:08.500Z,97270.34
2023-05-14T05:28:34.873Z,97252.22
2023-05-14T05:31:01.237Z,97270.22
2023-05-14T05:33:27.621Z,97266.81
2023-05-14T05:35:53.978Z,97264.41
2023-05-14T05:38:20.677Z,97260.56
2023-05-14T05:40:47.122Z,97277.72
2023-05-14T05:43:15.183Z,97274.75
2023-05-14T05:45:41.599Z,97271.34
2023-05-14T05:48:08.065Z,97276.13
2023-05-14T05:50:34.587Z,97266.66
2023-05-14T05:53:00.984Z,97279.94
2023-05-14T05:55:27.327Z,97267.91
2023-05-14T05:57:53.861Z,97275.13
2023-05-14T06:00:20.922Z,97279.69
2023-05-14T06:02:47.418Z,97279.59
2023-05-14T06:05:13.817Z,97287.81
2023-05-14T06:07:40.250Z,97264.94
2023-05-14T06:10:07.211Z,97274.44
2023-05-14T06:12:33.702Z,97281.56
2023-05-14T06:15:00.148Z,97282.53
2023-05-14T06:17:27.164Z,97282.88
2023-05-14T06:19:53.625Z,97280.44
2023-05-14T06:22:20.087Z,97279.38
2023-05-14T06:24:46.456Z,97272.72
2023-05-14T06:27:12.819Z,97273.97
2023-05-14T06:29:39.236Z,97275.38
2023-05-14T06:32:06.066Z,97284.72
2023-05-14T06:34:32.492Z,97281.13
2023-05-14T06:36:59.074Z,97284.63
2023-05-14T06:39:25.579Z,97278.31
2023-05-14T06:41:51.919Z,97278.06
2023-05-14T06:44:19.422Z,97279.00
2023-05-14T06:46:45.814Z,97287.34
2023-05-14T06:49:12.372Z,97279.44
2023-05-14T06:51:39.050Z,97280.91
2023-05-14T06:54:05.544Z,97270.34
2023-05-14T06:56:31.952Z,97276.81
2023-05-14T06:58:58.311Z,97282.84
2023-05-14T07:01:24.706Z,97281.50
2023-05-14T07:03:51.209Z,97278.34
2023-05-14T07:06:17.680Z,97268.75
2023-05-14T07:08:45.965Z,97256.91
2023-05-14T07:11:16.177Z,97270.97
2023-05-14T07:13:42.947Z,97272.38
2023-05-14T07:16:12.307Z,97273.00
2023-05-14T07:18:38.732Z,97269.50
2023-05-14T07:21:06.459Z,97284.81
2023-05-14T07:23:36.082Z,97266.59
2023-05-14T07:26:03.006Z,97268.75
2023-05-14T07:28:29.360Z,97274.41
2023-05-14T07:30:55.790Z,97272.13
2023-05-14T07:33:22.698Z,97268.78
2023-05-14T07:35:49.189Z,97272.75
2023-05-14T07:38:15.788Z,97264.91
2023-05-14T07:40:42.436Z,97272.41
2023-05-14T07:43:09.810Z,97260.38
2023-05-14T07:45:37.181Z,97265.59
2023-05-14T07:48:03.870Z,97266.19
2023-05-14T07:50:30.972Z,97253.91
2023-05-14T07:52:57.567Z,97252.16
2023-05-14T07:55:23.921Z,97252.94
2023-05-14T07:57:50.357Z,97258.94
2023-05-14T08:00:17.086Z,97256.25
2023-05-14T08:02:44.346Z,97259.63
2023-05-14T08:05:10.987Z,97255.75
2023-05-14T08:07:37.355Z,97247.00
2023-05-14T08:10:04.212Z,97244.88
2023-05-14T08:12:30.697Z,97256.31
2023-05-14T08:14:57.049Z,97246.94
2023-05-14T08:17:23.434Z,97248.28
2023-05-14T08:19:49.828Z,97239.94
2023-05-14T08:22:16.335Z,97245.63
2023-05-14T08:24:43.096Z,97247.47
2023-05-14T08:27:09.818Z,97237.47
2023-05-14T08:29:36.218Z,97242.97
2023-05-14T08:32:11.621Z,97245.91
2023-05-14T08:34:43.963Z,97238.38
2023-05-14T08:37:10.467Z,97231.19
2023-05-14T08:39:36.864Z,97238.00
2023-05-14T08:42:06.321Z,97236.91
2023-05-14T08:44:45.437Z,97240.63
2023-05-14T08:47:15.332Z,97234.56
2023-05-14T08:49:47.570Z,97234.34
2023-05-14T08:52:18.061Z,97231.09
2023-05-14T08:54:45.445Z,97231.28
2023-05-14T08:57:13.018Z,97229.00
2023-05-14T08:59:39.423Z,97231.63
2023-05-14T09:02:06.975Z,97226.94
2023-05-14T09:04:34.525Z,97210.78
2023-05-14T09:07:02.617Z,97211.84
2023-05-14T09:09:29.627Z,97218.38
2023-05-14T09:11:56.053Z,97205.06
2023-05-14T09:14:22.579Z,97222.19
2023-05-14T09:16:50.794Z,97215.25
2023-05-14T09:19:21.111Z,97209.84
2023-05-14T09:21:49.053Z,97197.72
2023-05-14T09:24:21.025Z,97196.34
2023-05-14T09:26:51.714Z,97199.94
2023-05-14T09:29:18.489Z,97202.53
2023-05-14T09:31:45.248Z,97201.56
2023-05-14T09:34:11.797Z,97193.22
2023-05-14T09:36:38.318Z,97196.41
2023-05-14T09:39:04.903Z,97190.59
2023-05-14T09:41:31.295Z,97192.19
2023-05-14T09:43:57.915Z,97185.56
2023-05-14T09:46:24.270Z,97185.13
2023-05-14T09:48:50.618Z,97195.41
2023-05-14T09:51:20.954Z,97198.63
2023-05-14T09:53:47.402Z,97189.41
2023-05-14T09:56:14.468Z,97185.06
2023-05-14T09:58:40.855Z,97186.56
2023-05-14T10:01:07.749Z,97189.16
2023-05-14T10:03:34.379Z,97183.53
2023-05-14T10:06:05.730Z,97197.59
2023-05-14T10:08:36.096Z,97194.13
2023-05-14T10:11:08.188Z,97183.78
2023-05-14T10:13:40.844Z,97183.63
2023-05-14T10:16:20.175Z,97171.63
2023-05-14T10:18:51.713Z,97187.38
2023-05-14T10:21:20.925Z,97190.53
2023-05-14T10:23:48.890Z,97185.53
2023-05-14T10:26:15.846Z,97185.84
2023-05-14T10:28:43.049Z,97187.75
2023-05-14T10:31:10.320Z,97184.19
2023-05-14T10:33:52.137Z,97171.16
2023-05-14T10:36:18.675Z,97184.44
2023-05-14T10:38:45.302Z,97171.03
2023-05-14T10:41:18.001Z,97179.31
2023-05-14T10:43:44.504Z,97176.25
2023-05-14T10:46:13.800Z,97169.25
2023-05-14T10:48:44.063Z,97171.59
2023-05-14T10:51:11.314Z,97175.94
2023-05-14T10:53:42.286Z,97168.25
2023-05-14T10:56:10.723Z,97169.19
2023-05-14T10:58:38.762Z,97170.22
2023-05-14T11:01:09.256Z,97174.94
2023-05-14T11:03:41.844Z,97176.34
2023-05-14T11:06:10.086Z,97174.63
2023-05-14T11:08:36.922Z,97165.97
2023-05-14T11:11:03.306Z,97177.38
2023-05-14T11:13:30.093Z,97176.50
2023-05-14T11:16:00.752Z,97157.13
2023-05-14T11:18:33.462Z,97160.28
2023-05-14T11:21:01.138Z,97165.28
2023-05-14T11:23:28.242Z,97157.00
2023-05-14T11:25:56.476Z,97161.31
2023-05-14T11:28:24.516Z,97145.50
2023-05-14T11:30:51.799Z,97158.59
2023-05-14T11:33:19.067Z,97146.19
2023-05-14T11:35:46.510Z,97145.47
2023-05-14T11:38:21.162Z,97163.34
2023-05-14T11:40:58.464Z,97153.84
2023-05-14T11:43:28.317Z,97150.66
2023-05-14T11:45:55.752Z,97138.34
2023-05-14T11:48:24.772Z,97140.38
2023-05-14T11:50:52.682Z,97124.78
2023-05-14T11:53:20.023Z,97127.34
2023-05-14T11:55:48.239Z,97138.78
2023-05-14T11:58:15.807Z,97128.25
2023-05-14T12:00:44.737Z,97124.34
2023-05-14T12:03:11.842Z,97132.88
2023-05-14T12:05:41.338Z,97123.97
2023-05-14T12:08:27.180Z,97135.59
2023-05-14T12:10:54.035Z,97136.78
2023-05-14T12:13:20.510Z,97124.25
2023-05-14T12:15:58.059Z,97122.78
2023-05-14T12:18:25.675Z,97126.84
2023-05-14T12:20:52.147Z,97128.31
2023-05-14T12:23:29.301Z,97121.06
2023-05-14T12:26:00.906Z,97114.13
2023-05-14T12:28:28.652Z,97125.78
2023-05-14T12:30:59.312Z,97108.19
2023-05-14T12:33:28.550Z,97116.56
2023-05-14T12:36:00.563Z,97111.22
2023-05-14T12:38:31.879Z,97102.84
2023-05-14T12:40:58.235Z,97086.88
2023-05-14T12:43:24.601Z,97096.72
2023-05-14T12:45:50.978Z,97094.72
2023-05-14T12:48:17.367Z,97089.78
2023-05-14T12:50:43.717Z,97070.25
2023-05-14T12:53:10.216Z,97083.41
2023-05-14T12:55:36.977Z,97079.84
2023-05-14T12:58:03.612Z,97075.88
2023-05-14T13:00:29.956Z,97064.72
2023-05-14T13:02:56.329Z,97071.97
2023-05-14T13:05:22.892Z,97072.16
2023-05-14T13:07:52.427Z,97068.09
2023-05-14T13:10:19.001Z,97063.13
2023-05-14T13:12:45.431Z,97061.41
2023-05-14T13:15:11.885Z,97048.44
2023-05-14T13:17:38.370Z,97063.41
2023-05-14T13:20:05.249Z,97054.19
2023-05-14T13:22:31.588Z,97057.16
2023-05-14T13:24:58.775Z,97060.97
2023-05-14T13:27:25.126Z,97049.44
2023-05-14T13:29:51.458Z,97038.22
2023-05-14T13:32:17.822Z,97043.75
2023-05-14T13:34:44.245Z,97040.84
2023-05-14T13:37:10.994Z,97037.94
2023-05-14T13:39:37.343Z,97040.28
2023-05-14T13:42:03.993Z,97030.53
2023-05-14T13:44:30.432Z,97020.13
2023-05-14T13:46:56.899Z,97018.69
2023-05-14T13:49:23.276Z,97030.00
2023-05-14T13:51:49.682Z,97020.25
2023-05-14T13:54:16.054Z,97008.78
2023-05-14T13:56:42.447Z,97007.81
2023-05-14T13:59:08.882Z,97004.44
2023-05-14T14:01:35.281Z,97015.63
2023-05-14T14:04:01.743Z,97017.63
2023-05-14T14:06:30.786Z,97015.25
2023-05-14T14:08:57.193Z,97006.06
2023-05-14T14:11:23.550Z,97005.28
2023-05-14T14:13:49.946Z,96993.28
2023-05-14T14:16:16.383Z,97010.75
2023-05-14T14:18:43.268Z,97003.91
2023-05-14T14:21:10.271Z,97006.00
2023-05-14T14:23:36.671Z,96996.13
2023-05-14T14:26:03.676Z,96993.66
2023-05-14T14:28:30.293Z,96984.25
2023-05-14T14:30:56.672Z,96981.63
2023-05-14T14:33:23.069Z,96984.53
2023-05-14T14:35:49.416Z,96974.13
2023-05-14T14:38:15.788Z,96974.13
2023-05-14T14:40:42.165Z,96977.50
2023-05-14T14:43:08.545Z,96980.59
2023-05-14T14:45:34.907Z,96963.31
2023-05-14T14:48:22.897Z,96980.31
2023-05-14T14:50:49.518Z,96957.38
2023-05-14T14:53:15.878Z,96954.88
2023-05-14T14:55:42.309Z,96957.25
2023-05-14T14:58:08.798Z,96941.28
2023-05-14T15:00:35.433Z,96953.66
2023-05-14T15:03:01.880Z,96952.16
2023-05-14T15:05:28.300Z,96948.00
2023-05-14T15:07:54.638Z,96960.38
2023-05-14T15:10:20.976Z,96961.31
2023-05-14T15:12:47.363Z,96964.63
2023-05-14T15:15:13.904Z,96964.38
2023-05-14T15:17:40.302Z,96956.72
2023-05-14T15:20:07.460Z,96966.53
2023-05-14T15:22:33.856Z,96971.53
2023-05-14T15:25:00.214Z,96974.13
2023-05-14T15:27:26.893Z,96970.66
2023-05-14T15:29:53.265Z,96975.22
2023-05-14T15:32:19.706Z,96990.19
2023-05-14T15:34:46.092Z,96992.56
2023-05-14T15:37:12.433Z,96983.06
2023-05-14T15:39:38.838Z,96983.28
2023-05-14T15:42:05.472Z,96987.28
2023-05-14T15:44:32.051Z,96981.06
2023-05-14T15:46:59.649Z,96983.19
2023-05-14T15:49:25.999Z,96974.47
2023-05-14T15:51:52.432Z,96963.06
2023-05-14T15:54:18.797Z,96974.91
2023-05-14T15:56:45.200Z,96961.22
2023-05-14T15:59:11.613Z,96963.06
2023-05-14T16:01:38.026Z,96966.97
2023-05-14T16:04:04.507Z,96968.97
2023-05-14T16:06:31.053Z,96960.00
2023-05-14T16:08:57.520Z,96969.72
2023-05-14T16:11:23.880Z,96963.41
2023-05-14T16:13:50.232Z,96965.16
2023-05-14T16:16:16.775Z,96957.97
2023-05-14T16:18:43.783Z,96961.38
2023-05-14T16:21:10.182Z,96962.13
2023-05-14T16:23:36.711Z,96950.06
2023-05-14T16:26:03.107Z,96965.53
2023-05-14T16:28:29.560Z,96954.88
2023-05-14T16:30:55.929Z,96962.53
2023-05-14T16:33:22.264Z,96966.97
2023-05-14T16:35:49.786Z,96957.16
2023-05-14T16:38:16.133Z,96962.66
2023-05-14T16:40:42.716Z,96965.13
2023-05-14T16:43:09.051Z,96969.59
2023-05-14T16:45:37.222Z,96965.34
2023-05-14T16:48:04.275Z,96954.97
2023-05-14T16:50:30.698Z,96965.09
2023-05-14T16:52:57.156Z,96968.41
2023-05-14T16:55:23.868Z,96962.91
2023-05-14T16:57:50.561Z,96963.59
2023-05-14T17:00:17.835Z,96960.78
2023-05-14T17:02:44.199Z,96967.19
2023-05-14T17:05:10.572Z,96948.53
2023-05-14T17:07:39.152Z,96963.75
2023-05-14T17:10:06.417Z,96959.31
2023-05-14T17:12:32.776Z,96969.47
2023-05-14T17:14:59.153Z,96966.09
2023-05-14T17:17:25.561Z,96966.00
2023-05-14T17:19:51.898Z,96962.09
2023-05-14T17:22:18.317Z,96974.63
2023-05-14T17:24:44.684Z,96961.25
2023-05-14T17:27:11.277Z,96966.84
2023-05-14T17:29:37.690Z,96973.28
2023-05-14T17:32:04.800Z,96977.34
2023-05-14T17:34:31.237Z,96965.25
2023-05-14T17:36:57.867Z,96971.25
2023-05-14T17:39:24.304Z,96966.94
2023-05-14T17:41:51.183Z,96961.22
2023-05-14T17:44:17.543Z,96968.22
2023-05-14T17:46:45.146Z,96964.00
2023-05-14T17:49:11.927Z,96973.09
2023-05-14T17:51:38.434Z,96966.94
2023-05-14T17:54:04.832Z,96975.19
2023-05-14T17:56:31.423Z,96981.53
2023-05-14T17:58:57.775Z,96974.91
2023-05-14T18:01:24.247Z,96969.13
2023-05-14T18:03:50.915Z,96979.34
2023-05-14T18:06:17.534Z,96973.72
2023-05-14T18:08:43.919Z,96974.84
2023-05-14T18:11:10.276Z,96980.28
2023-05-14T18:13:36.616Z,96983.13
2023-05-14T18:16:03.716Z,96985.97
2023-05-14T18:18:30.753Z,96990.34
2023-05-14T18:20:57.550Z,96987.09
2023-05-14T18:23:23.985Z,96988.81
2023-05-14T18:25:50.406Z,97003.00
2023-05-14T18:28:16.889Z,96992.66
2023-05-14T18:30:43.561Z,96996.56
2023-05-14T18:33:10.306Z,96994.38
2023-05-14T18:35:36.815Z,96994.16
2023-05-14T18:38:03.348Z,96999.16
2023-05-14T18:40:29.691Z,96998.84
2023-05-14T18:42:56.725Z,97003.31
2023-05-14T18:45:24.218Z,96998.84
2023-05-14T18:47:51.447Z,97009.84
2023-05-14T18:50:17.873Z,96999.41
2023-05-14T18:52:44.247Z,97012.69
2023-05-14T18:55:10.654Z,97013.34
2023-05-14T18:57:37.114Z,97017.47
2023-05-14T19:00:05.035Z,97004.53
2023-05-14T19:02:31.502Z,96998.63
2023-05-14T19:04:57.982Z,97010.81
2023-05-14T19:07:24.452Z,97008.53
2023-05-14T19:09:51.130Z,97015.16
2023-05-14T19:12:17.528Z,97011.47
2023-05-14T19:14:43.896Z,97007.84
2023-05-14T19:17:10.908Z,97019.50
2023-05-14T19:19:37.744Z,97018.13
2023-05-14T19:22:04.258Z,97018.00
2023-05-14T19:24:30.708Z,97025.31
2023-05-14T19:26:57.142Z,97021.72
2023-05-14T19:29:23.624Z,97021.38
2023-05-14T19:31:50.060Z,97023.34
2023-05-14T19:34:16.649Z,97024.66
2023-05-14T19:36:43.032Z,97008.53
2023-05-14T19:39:09.655Z,97028.69
2023-05-14T19:41:36.083Z,97016.72
2023-05-14T19:44:02.483Z,97016.47
2023-05-14T19:46:28.945Z,97006.22
2023-05-14T19:48:55.403Z,97003.72
2023-05-14T19:51:21.744Z,97021.50
2023-05-14T19:53:48.122Z,97031.00
2023-05-14T19:56:15.325Z,97032.53
2023-05-14T19:58:41.742Z,97021.41
2023-05-14T20:01:08.311Z,97033.06
2023-05-14T20:03:34.770Z,97035.97
2023-05-14T20:06:01.774Z,97036.59
2023-05-14T20:08:29.073Z,97035.28
2023-05-14T20:10:55.533Z,97035.94
2023-05-14T20:13:23.209Z,97033.19
2023-05-14T20:15:51.566Z,97039.81
2023-05-14T20:18:17.984Z,97025.75
2023-05-14T20:20:44.310Z,97026.72
2023-05-14T20:23:10.682Z,97028.75
2023-05-14T20:25:37.010Z,97032.75
2023-05-14T20:28:04.046Z,97032.97
2023-05-14T20:30:30.857Z,97028.38
2023-05-14T20:32:57.427Z,97019.34
2023-05-14T20:35:23.887Z,97031.91
2023-05-14T20:37:50.443Z,97022.44
2023-05-14T20:40:17.014Z,97015.44
2023-05-14T20:42:43.461Z,97029.25
2023-05-14T20:45:10.381Z,97021.16
2023-05-14T20:47:36.876Z,97019.19
2023-05-14T20:50:04.558Z,97006.53
2023-05-14T20:52:30.944Z,97006.53
2023-05-14T20:54:58.763Z,97009.56
2023-05-14T20:57:27.789Z,97010.03
2023-05-14T20:59:54.223Z,96997.81
2023-05-14T21:02:20.842Z,97000.84
2023-05-14T21:04:47.472Z,97001.50
2023-05-14T21:07:13.862Z,96992.44
2023-05-14T21:09:40.281Z,96987.56
2023-05-14T21:12:06.958Z,96988.78
2023-05-14T21:14:33.333Z,96974.41
2023-05-14T21:16:59.688Z,96987.25
2023-05-14T21:19:26.049Z,96978.06
2023-05-14T21:21:52.409Z,96986.03
2023-05-14T21:24:18.989Z,96978.69
2023-05-14T21:26:45.711Z,96974.88
2023-05-14T21:29:12.180Z,96974.88
2023-05-14T21:31:38.584Z,96975.00
2023-05-14T21:34:05.011Z,96977.78
2023-05-14T21:36:31.459Z,96982.50
2023-05-14T21:38:57.822Z,96973.03
2023-05-14T21:41:24.210Z,96980.09
2023-05-14T21:43:50.574Z,96969.84
2023-05-14T21:46:16.983Z,96974.13
2023-05-14T21:48:43.430Z,96966.78
2023-05-14T21:51:10.057Z,96978.56
2023-05-14T21:53:36.458Z,96971.38
2023-05-14T21:56:02.891Z,96967.25
2023-05-14T21:58:29.302Z,96967.56
2023-05-14T22:00:55.671Z,96956.88
2023-05-14T22:03:22.126Z,96962.84
2023-05-14T22:05:49.171Z,96963.91
2023-05-14T22:08:17.479Z,96964.53
2023-05-14T22:10:44.149Z,96968.50
2023-05-14T22:13:10.958Z,96960.88
2023-05-14T22:15:37.855Z,96964.53
2023-05-14T22:18:04.533Z,96968.53
2023-05-14T22:20:31.033Z,96960.91
2023-05-14T22:22:57.389Z,96961.06
2023-05-14T22:25:23.949Z,96962.44
2023-05-14T22:27:50.546Z,96949.59
2023-05-14T22:30:16.905Z,96956.03
2023-05-14T22:32:43.340Z,96942.72
2023-05-14T22:35:09.777Z,96952.06
2023-05-14T22:37:36.164Z,96950.84
2023-05-14T22:40:05.056Z,96952.69
2023-05-14T22:42:31.400Z,96947.50
2023-05-14T22:44:57.777Z,96955.00
2023-05-14T22:47:25.150Z,96947.03
2023-05-14T22:49:51.659Z,96949.81
2023-05-14T22:52:18.877Z,96938.31
2023-05-14T22:54:46.574Z,96940.66
2023-05-14T22:57:12.980Z,96936.50
2023-05-14T22:59:39.512Z,96936.50
2023-05-14T23:02:06.765Z,96944.66
2023-05-14T23:04:33.423Z,96932.44
2023-05-14T23:06:59.853Z,96933.91
2023-05-14T23:09:26.312Z,96933.31
2023-05-14T23:11:52.665Z,96920.66
2023-05-14T23:14:19.615Z,96930.44
2023-05-14T23:16:46.030Z,96933.22
2023-05-14T23:19:12.624Z,96926.03
2023-05-14T23:21:39.115Z,96931.09
2023-05-14T23:24:05.949Z,96932.66
2023-05-14T23:26:32.581Z,96925.34
2023-05-14T23:28:58.942Z,96909.94
2023-05-14T23:31:25.437Z,96913.91
2023-05-14T23:33:51.817Z,96916.50
2023-05-14T23:36:18.295Z,96917.56
2023-05-14T23:38:44.839Z,96922.06
2023-05-14T23:41:11.266Z,96909.34
2023-05-14T23:43:37.703Z,96914.44
2023-05-14T23:46:04.181Z,96900.06
2023-05-14T23:48:30.988Z,96899.59
2023-05-14T23:50:57.352Z,96912.59
2023-05-14T23:53:23.780Z,96906.50
2023-05-14T23:55:50.380Z,96908.75
2023-05-14T23:58:16.906Z,96893.31
